Pagrindinis puslapis
METAR-TAF:

METAR-TAF

Oro uostai :

Kanzas Sitis, Misūris, Jungtinės Amerikos Valstijos

platuma: 39-17-50N, ilguma: 094-43-50W, Aukštis: 312 m

Dabartinis oras

Ataskaita buvo paskelbta 48 minutes, ne 22:04 UTC
Vėjas 7 kt iš Pietų/Pietryčių
Temperatūra 29°C
Drėgmė 70%
Slėgis 1015 hPa
Matomumas: 16.1 km
Su prošvaistėmis ne aukštis 5500 ft
Su prošvaistėmis ne aukštis 20000 ft

METAR: KMCI 192204Z 16007KT 10SM BKN055 BKN200 29/23 A2997 RMK AO2 T02940228 $

Laikas: 17:52 (22:52 UTC)

Prognozė

Ataskaita buvo paskelbta 5 valandos ir 32 minutes, ne 17:20 UTC
Prognozė galioja nuo 19 metu 18 UTC su 20 metu 18 UTC
Vėjas 8 kt iš Pietų
Matomumas: 10 km
Išsisklaidę debesys ne aukštis 5000 ft, Liūtiniai kamuoliniai debesys.
Išsisklaidę debesys ne aukštis 20000 ft
Perkūnija kaimynystėje
Nuo 19 metu 2300 UTC
Vėjas 7 kt iš Pietų/Pietryčių
Matomumas: 10 km
Išsisklaidę debesys ne aukštis 20000 ft

TAF: KMCI 191720Z 1918/2018 17008KT P6SM VCTS SCT050CB SCT200 FM192300 16007KT P6SM SCT200

Orai ataskaitas ir orų prognozės (METAR, TAF).

turimą stotys yra geltonos ir raudonos taškus žemėlapyje.

Perkelti pele per norėdami pamatyti stoties vardą.

Tada spustelėkite, norėdami matyti oro stebėjimo ir prognozės.

Norėdami pakeisti žemėlapį: spustelėkite ant žalios mygtukų su juodo kryžiaus žemyn,; žalią mygtuką su brūkšneliu, jei norite nutolinti; arba žalių rodyklių gretimoms žemėlapius.


METAR-TAF: